createdAt,value
2022-12-26T00:01:06.724Z,84.82
2022-12-26T00:03:34.204Z,84.95
2022-12-26T00:06:01.874Z,85.11
2022-12-26T00:08:29.318Z,84.70
2022-12-26T00:10:56.925Z,85.02
2022-12-26T00:13:38.613Z,84.89
2022-12-26T00:16:10.294Z,84.87
2022-12-26T00:18:38.176Z,84.43
2022-12-26T00:21:05.941Z,84.22
2022-12-26T00:23:34.133Z,84.09
2022-12-26T00:26:03.618Z,83.95
2022-12-26T00:28:32.503Z,84.28
2022-12-26T00:31:00.247Z,84.22
2022-12-26T00:33:27.865Z,84.39
2022-12-26T00:35:55.226Z,84.57
2022-12-26T00:38:22.595Z,84.13
2022-12-26T00:40:49.970Z,84.15
2022-12-26T00:43:17.428Z,84.46
2022-12-26T00:45:48.674Z,84.37
2022-12-26T00:48:16.071Z,84.00
2022-12-26T00:50:43.437Z,84.54
2022-12-26T00:53:10.874Z,84.61
2022-12-26T00:55:38.298Z,84.79
2022-12-26T00:58:05.890Z,85.20
2022-12-26T01:00:33.632Z,85.44
2022-12-26T01:03:02.598Z,85.54
2022-12-26T01:05:30.124Z,85.82
2022-12-26T01:08:23.289Z,85.75
2022-12-26T01:10:47.226Z,85.43
2022-12-26T01:13:14.707Z,85.40
2022-12-26T01:15:48.556Z,85.32
2022-12-26T01:18:17.241Z,85.77
2022-12-26T01:20:44.615Z,85.21
2022-12-26T01:23:11.991Z,85.09
2022-12-26T01:26:17.875Z,85.17
2022-12-26T01:28:27.647Z,85.17
2022-12-26T01:30:55.316Z,85.17
2022-12-26T01:33:23.980Z,85.13
2022-12-26T01:35:52.996Z,84.73
2022-12-26T01:38:21.124Z,84.46
2022-12-26T01:40:49.342Z,84.52
2022-12-26T01:43:17.432Z,84.93
2022-12-26T01:45:47.013Z,84.67
2022-12-26T01:48:20.965Z,84.64
2022-12-26T01:50:55.339Z,84.86
2022-12-26T01:53:26.964Z,84.74
2022-12-26T01:55:59.996Z,84.41
2022-12-26T01:58:32.564Z,84.77
2022-12-26T02:01:00.512Z,84.48
2022-12-26T02:03:45.684Z,84.53
2022-12-26T02:06:16.627Z,84.56
2022-12-26T02:08:45.960Z,84.69
2022-12-26T02:11:17.046Z,84.35
2022-12-26T02:13:44.737Z,84.75
2022-12-26T02:16:16.273Z,84.61
2022-12-26T02:18:43.705Z,84.82
2022-12-26T02:21:30.497Z,84.76
2022-12-26T02:24:28.021Z,85.25
2022-12-26T02:27:21.698Z,84.31
2022-12-26T02:30:13.810Z,84.52
2022-12-26T02:32:59.537Z,84.56
2022-12-26T02:35:40.019Z,84.82
2022-12-26T02:38:20.104Z,84.56
2022-12-26T02:40:54.674Z,85.14
2022-12-26T02:43:28.219Z,84.92
2022-12-26T02:46:23.523Z,84.43
2022-12-26T02:48:59.296Z,83.75
2022-12-26T02:51:59.101Z,83.86
2022-12-26T02:54:49.695Z,83.19
2022-12-26T02:57:39.658Z,83.32
2022-12-26T03:00:29.919Z,83.38
2022-12-26T03:03:20.461Z,83.47
2022-12-26T03:06:16.996Z,83.56
2022-12-26T03:09:06.915Z,83.23
2022-12-26T03:11:56.862Z,83.77
2022-12-26T03:14:27.668Z,84.27
2022-12-26T03:17:18.512Z,84.48
2022-12-26T03:20:00.233Z,84.75
2022-12-26T03:22:37.241Z,84.74
2022-12-26T03:25:26.011Z,84.33
2022-12-26T03:27:54.609Z,83.68
2022-12-26T03:30:39.719Z,83.33
2022-12-26T03:33:28.244Z,83.51
2022-12-26T03:35:54.925Z,83.90
2022-12-26T03:38:30.026Z,83.72
2022-12-26T03:41:19.006Z,83.93
2022-12-26T03:44:15.375Z,83.73
2022-12-26T03:47:13.434Z,82.94
2022-12-26T03:50:04.236Z,83.17
2022-12-26T03:52:57.153Z,83.02
2022-12-26T03:55:49.746Z,83.36
2022-12-26T03:58:41.591Z,82.74
2022-12-26T04:01:30.474Z,83.56
2022-12-26T04:04:18.817Z,83.84
2022-12-26T04:07:09.975Z,83.31
2022-12-26T04:09:59.694Z,82.80
2022-12-26T04:12:48.623Z,82.61
2022-12-26T04:15:41.086Z,83.23
2022-12-26T04:18:31.298Z,82.48
2022-12-26T04:21:31.655Z,82.88
2022-12-26T04:24:36.284Z,83.27
2022-12-26T04:27:24.474Z,83.19
2022-12-26T04:30:11.351Z,83.03
2022-12-26T04:33:01.043Z,82.56
2022-12-26T04:35:50.474Z,83.39
2022-12-26T04:38:40.238Z,83.36
2022-12-26T04:41:27.818Z,83.81
2022-12-26T04:44:05.102Z,83.67
2022-12-26T04:46:36.243Z,83.71
2022-12-26T04:49:24.707Z,83.84
2022-12-26T04:51:52.285Z,83.93
2022-12-26T04:54:19.783Z,84.34
2022-12-26T04:56:47.264Z,83.95
2022-12-26T04:59:15.025Z,83.64
2022-12-26T05:02:01.560Z,83.42
2022-12-26T05:04:47.175Z,83.00
2022-12-26T05:07:36.410Z,81.62
2022-12-26T05:12:56.772Z,79.82
2022-12-26T05:15:24.744Z,78.74
2022-12-26T05:18:10.963Z,77.70
2022-12-26T05:20:57.790Z,76.58
2022-12-26T05:23:46.271Z,76.16
2022-12-26T05:26:38.910Z,75.25
2022-12-26T05:29:06.516Z,75.29
2022-12-26T05:34:26.078Z,75.33
2022-12-26T05:36:57.373Z,75.26
2022-12-26T05:39:24.800Z,74.59
2022-12-26T05:41:52.471Z,74.51
2022-12-26T05:47:10.799Z,74.30
2022-12-26T05:52:30.617Z,73.62
2022-12-26T05:54:58.061Z,72.91
2022-12-26T05:57:25.420Z,73.21
2022-12-26T05:59:53.133Z,73.63
2022-12-26T06:02:20.672Z,73.89
2022-12-26T06:04:49.391Z,73.52
2022-12-26T06:07:16.802Z,73.44
2022-12-26T06:09:44.162Z,73.48
2022-12-26T06:12:11.860Z,73.97
2022-12-26T06:14:39.263Z,74.46
2022-12-26T06:17:07.845Z,74.37
2022-12-26T06:19:35.242Z,73.40
2022-12-26T06:22:03.932Z,73.66
2022-12-26T06:24:31.291Z,73.76
2022-12-26T06:26:58.638Z,74.21
2022-12-26T06:29:25.989Z,74.32
2022-12-26T06:31:56.845Z,74.71
2022-12-26T06:34:24.266Z,74.85
2022-12-26T06:36:51.667Z,74.32
2022-12-26T06:39:20.349Z,73.71
2022-12-26T06:41:51.220Z,74.18
2022-12-26T06:44:18.946Z,74.78
2022-12-26T06:46:46.694Z,74.77
2022-12-26T06:49:14.578Z,74.09
2022-12-26T06:51:44.906Z,74.83
2022-12-26T06:54:15.897Z,75.01
2022-12-26T06:56:44.738Z,74.83
2022-12-26T06:59:12.642Z,73.97
2022-12-26T07:01:40.158Z,74.15
2022-12-26T07:04:07.621Z,74.66
2022-12-26T07:06:37.423Z,75.06
2022-12-26T07:09:07.515Z,74.86
2022-12-26T07:11:37.507Z,75.14
2022-12-26T07:14:11.023Z,74.84
2022-12-26T07:19:32.228Z,74.27
2022-12-26T07:21:59.606Z,75.09
2022-12-26T07:24:26.968Z,75.19
2022-12-26T07:26:54.381Z,75.03
2022-12-26T07:29:23.266Z,75.07
2022-12-26T07:34:42.473Z,75.96
2022-12-26T07:37:10.050Z,76.76
2022-12-26T07:39:38.048Z,77.27
2022-12-26T07:42:06.104Z,77.97
2022-12-26T07:44:35.000Z,78.61
2022-12-26T07:47:02.690Z,78.95
2022-12-26T07:52:23.190Z,78.98
2022-12-26T07:54:50.548Z,78.20
2022-12-26T08:00:08.257Z,77.31
2022-12-26T08:02:35.983Z,77.55
2022-12-26T08:05:03.483Z,77.25
2022-12-26T08:07:30.847Z,77.57
2022-12-26T08:09:58.398Z,77.39
2022-12-26T08:12:26.986Z,77.29
2022-12-26T08:14:54.416Z,76.92
2022-12-26T08:20:14.844Z,76.91
2022-12-26T08:22:42.240Z,76.38
2022-12-26T08:25:13.402Z,76.25
2022-12-26T08:27:42.901Z,75.25
2022-12-26T08:30:11.397Z,74.59
2022-12-26T08:32:42.493Z,73.71
2022-12-26T08:35:11.839Z,72.87
2022-12-26T08:37:39.202Z,72.02
2022-12-26T08:40:07.632Z,72.19
2022-12-26T08:42:44.605Z,71.63
2022-12-26T08:45:17.962Z,71.80
2022-12-26T08:47:46.645Z,70.95
2022-12-26T08:50:14.088Z,70.20
2022-12-26T08:52:41.589Z,70.86
2022-12-26T08:55:10.322Z,69.88
2022-12-26T08:57:38.551Z,69.83
2022-12-26T09:00:07.708Z,70.11
2022-12-26T09:03:01.977Z,69.98
2022-12-26T09:08:20.709Z,69.22
2022-12-26T09:10:48.132Z,68.80
2022-12-26T09:13:18.830Z,69.00
2022-12-26T09:15:46.194Z,68.62
2022-12-26T09:18:14.908Z,68.81
2022-12-26T09:20:42.303Z,68.72
2022-12-26T09:23:10.806Z,68.45
2022-12-26T09:28:29.853Z,68.52
2022-12-26T09:31:00.709Z,67.76
2022-12-26T09:33:33.847Z,66.47
2022-12-26T09:36:04.532Z,65.68
2022-12-26T09:38:34.707Z,65.78
2022-12-26T09:41:21.863Z,64.95
2022-12-26T09:44:00.954Z,65.73
2022-12-26T09:46:34.125Z,65.18
2022-12-26T09:49:07.285Z,65.59
2022-12-26T09:51:36.328Z,66.08
2022-12-26T09:54:07.968Z,65.80
2022-12-26T10:02:23.617Z,66.60
2022-12-26T10:04:53.132Z,66.12
2022-12-26T10:16:25.730Z,67.00
2022-12-26T10:19:02.322Z,68.12
2022-12-26T10:24:38.081Z,68.49
2022-12-26T10:27:13.552Z,69.42
2022-12-26T10:29:43.544Z,69.57
2022-12-26T10:32:20.568Z,70.86
2022-12-26T10:34:52.820Z,69.71
2022-12-26T10:37:26.984Z,69.77
2022-12-26T10:39:59.039Z,69.61
2022-12-26T10:42:31.460Z,69.56
2022-12-26T10:47:52.484Z,69.16
2022-12-26T10:50:27.850Z,69.02
2022-12-26T10:52:58.041Z,69.16
2022-12-26T10:55:34.786Z,68.27
2022-12-26T10:58:07.893Z,68.85
2022-12-26T11:00:35.628Z,68.80
2022-12-26T11:03:05.706Z,68.33
2022-12-26T11:08:28.796Z,67.60
2022-12-26T11:11:09.910Z,67.80
2022-12-26T11:13:41.105Z,68.35
2022-12-26T11:16:09.414Z,67.75
2022-12-26T11:18:43.818Z,67.19
2022-12-26T11:21:23.144Z,66.62
2022-12-26T11:23:56.749Z,66.55
2022-12-26T11:26:26.784Z,66.25
2022-12-26T11:29:11.836Z,66.42
2022-12-26T11:31:41.270Z,66.55
2022-12-26T11:34:10.685Z,66.24
2022-12-26T11:36:44.840Z,66.04
2022-12-26T11:39:23.045Z,65.13
2022-12-26T11:41:53.791Z,65.46
2022-12-26T11:44:27.502Z,65.36
2022-12-26T11:46:59.252Z,64.83
2022-12-26T11:49:31.758Z,65.05
2022-12-26T11:54:54.901Z,66.26
2022-12-26T11:57:28.273Z,66.20
2022-12-26T11:59:56.974Z,66.15
2022-12-26T12:02:32.789Z,65.41
2022-12-26T12:05:03.475Z,66.14
2022-12-26T12:08:00.957Z,66.11
2022-12-26T12:10:48.623Z,66.51
2022-12-26T12:13:26.343Z,66.18
2022-12-26T12:16:00.907Z,67.00
2022-12-26T12:18:40.135Z,67.41
2022-12-26T12:21:20.257Z,67.38
2022-12-26T12:23:57.872Z,67.76
2022-12-26T12:26:33.705Z,68.05
2022-12-26T12:29:24.248Z,68.18
2022-12-26T12:32:06.948Z,68.15
2022-12-26T12:34:52.121Z,68.89
2022-12-26T12:37:29.662Z,68.42
2022-12-26T12:40:24.447Z,68.20
2022-12-26T12:43:01.807Z,68.58
2022-12-26T12:45:33.640Z,68.35
2022-12-26T12:48:23.799Z,68.60
2022-12-26T12:50:58.780Z,68.80
2022-12-26T12:53:42.593Z,68.75
2022-12-26T12:56:28.929Z,68.81
2022-12-26T12:59:08.010Z,69.35
2022-12-26T13:01:40.846Z,68.63
2022-12-26T13:04:12.250Z,69.03
2022-12-26T13:06:43.704Z,69.17
2022-12-26T13:09:17.958Z,69.16
2022-12-26T13:11:49.886Z,70.58
2022-12-26T13:14:22.665Z,77.12
2022-12-26T13:16:56.048Z,81.51
2022-12-26T13:19:26.306Z,85.71
2022-12-26T13:21:58.412Z,87.40
2022-12-26T13:24:32.278Z,89.93
2022-12-26T13:27:05.473Z,89.49
2022-12-26T13:29:41.777Z,92.91
2022-12-26T13:32:21.127Z,91.52
2022-12-26T13:34:49.338Z,91.25
2022-12-26T13:37:54.745Z,91.64
2022-12-26T13:40:24.897Z,90.94
2022-12-26T13:43:19.730Z,89.59
2022-12-26T13:45:56.368Z,88.88
2022-12-26T13:52:01.735Z,88.70
2022-12-26T13:54:30.210Z,87.98
2022-12-26T13:57:36.707Z,89.21
2022-12-26T14:00:23.930Z,89.77
2022-12-26T14:03:45.234Z,88.90
2022-12-26T14:06:40.725Z,89.45
2022-12-26T14:09:21.495Z,88.99
2022-12-26T14:12:22.986Z,90.29
2022-12-26T14:18:09.666Z,89.52
2022-12-26T14:20:45.635Z,90.25
2022-12-26T14:23:36.281Z,91.36
2022-12-26T14:26:09.614Z,92.64
2022-12-26T14:28:53.463Z,93.04
2022-12-26T14:31:31.721Z,89.98
2022-12-26T14:34:10.852Z,90.27
2022-12-26T14:36:45.242Z,90.81
2022-12-26T14:39:25.849Z,89.97
2022-12-26T14:42:34.787Z,93.63
2022-12-26T14:47:56.262Z,93.35
2022-12-26T14:50:38.954Z,93.59
2022-12-26T14:53:31.543Z,92.90
2022-12-26T14:56:00.858Z,94.55
2022-12-26T14:58:42.670Z,94.20
2022-12-26T15:01:47.295Z,95.09
2022-12-26T15:04:52.078Z,91.91
2022-12-26T15:07:46.666Z,92.60
2022-12-26T15:10:45.571Z,89.14
2022-12-26T15:13:42.058Z,88.30
2022-12-26T15:16:40.026Z,88.14
2022-12-26T15:19:59.746Z,87.94
2022-12-26T15:23:02.431Z,88.18
2022-12-26T15:26:20.672Z,88.29
2022-12-26T15:29:04.568Z,88.01
2022-12-26T15:31:42.733Z,86.11
2022-12-26T15:34:31.109Z,85.04
2022-12-26T15:37:03.525Z,85.37
2022-12-26T15:39:39.079Z,85.73
2022-12-26T15:42:30.872Z,86.77
2022-12-26T15:45:15.015Z,88.52
2022-12-26T15:47:52.770Z,89.08
2022-12-26T15:50:27.743Z,88.99
2022-12-26T15:53:09.391Z,89.51
2022-12-26T15:56:06.874Z,91.05
2022-12-26T16:01:48.740Z,91.68
2022-12-26T16:04:22.170Z,91.56
2022-12-26T16:07:11.684Z,90.49
2022-12-26T16:09:44.625Z,88.78
2022-12-26T16:15:19.849Z,89.41
2022-12-26T16:17:48.978Z,88.55
2022-12-26T16:20:45.726Z,89.12
2022-12-26T16:23:15.068Z,88.91
2022-12-26T16:25:50.734Z,88.78
2022-12-26T16:28:24.556Z,88.91
2022-12-26T16:30:55.726Z,88.68
2022-12-26T16:33:24.582Z,89.47
2022-12-26T16:38:45.372Z,90.31
2022-12-26T16:41:20.507Z,90.98
2022-12-26T16:43:47.913Z,91.18
2022-12-26T16:46:18.152Z,91.30
2022-12-26T16:51:47.215Z,91.75
2022-12-26T16:54:37.313Z,92.85
2022-12-26T16:57:09.716Z,92.56
2022-12-26T17:02:46.781Z,92.96
2022-12-26T17:05:22.142Z,92.54
2022-12-26T17:07:52.149Z,92.22
2022-12-26T17:10:22.719Z,92.21
2022-12-26T17:15:51.353Z,91.69
2022-12-26T17:18:47.488Z,90.72
2022-12-26T17:21:22.542Z,90.40
2022-12-26T17:24:25.391Z,90.63
2022-12-26T17:27:09.700Z,90.53
2022-12-26T17:29:46.773Z,89.96
2022-12-26T17:32:16.787Z,89.86
2022-12-26T17:34:44.646Z,89.58
2022-12-26T17:37:23.667Z,90.14
2022-12-26T17:39:56.714Z,90.04
2022-12-26T17:45:22.325Z,89.92
2022-12-26T17:47:53.702Z,89.79
2022-12-26T17:50:21.272Z,90.47
2022-12-26T17:52:50.340Z,90.11
2022-12-26T17:55:19.780Z,90.37
2022-12-26T17:57:47.615Z,90.04
2022-12-26T18:03:15.891Z,89.66
2022-12-26T18:05:43.758Z,88.69
2022-12-26T18:08:25.698Z,88.28
2022-12-26T18:10:53.093Z,88.78
2022-12-26T18:13:20.456Z,87.74
2022-12-26T18:15:48.384Z,87.77
2022-12-26T18:18:24.854Z,87.27
2022-12-26T18:23:45.305Z,87.31
2022-12-26T18:26:18.681Z,87.60
2022-12-26T18:28:46.353Z,87.31
2022-12-26T18:31:15.166Z,86.05
2022-12-26T18:33:42.532Z,85.75
2022-12-26T18:36:11.665Z,85.51
2022-12-26T18:38:39.113Z,85.70
2022-12-26T18:41:07.866Z,84.12
2022-12-26T18:43:35.496Z,84.20
2022-12-26T18:46:02.936Z,83.48
2022-12-26T18:48:30.375Z,84.21
2022-12-26T18:50:57.741Z,83.12
2022-12-26T18:53:25.180Z,82.85
2022-12-26T18:55:53.316Z,82.49
2022-12-26T18:58:21.897Z,82.06
2022-12-26T19:00:49.307Z,81.82
2022-12-26T19:06:11.315Z,80.78
2022-12-26T19:08:38.666Z,80.78
2022-12-26T19:11:06.064Z,80.38
2022-12-26T19:13:36.099Z,80.40
2022-12-26T19:16:03.573Z,81.49
2022-12-26T19:18:30.998Z,80.55
2022-12-26T19:20:58.574Z,80.34
2022-12-26T19:23:25.918Z,80.30
2022-12-26T19:25:53.305Z,80.12
2022-12-26T19:28:20.679Z,79.20
2022-12-26T19:33:40.738Z,78.68
2022-12-26T19:36:10.634Z,78.00
2022-12-26T19:38:38.363Z,77.99
2022-12-26T19:44:00.650Z,78.16
2022-12-26T19:49:21.648Z,77.63
2022-12-26T19:51:51.110Z,77.77
2022-12-26T19:54:21.642Z,78.16
2022-12-26T19:56:49.383Z,77.92
2022-12-26T19:59:18.700Z,77.81
2022-12-26T20:01:48.409Z,78.14
2022-12-26T20:04:15.990Z,77.44
2022-12-26T20:06:43.390Z,77.28
2022-12-26T20:09:15.598Z,77.04
2022-12-26T20:11:49.229Z,76.62
2022-12-26T20:14:19.002Z,76.81
2022-12-26T20:17:08.579Z,77.47
2022-12-26T20:22:29.121Z,77.35
2022-12-26T20:24:56.475Z,79.04
2022-12-26T20:30:15.754Z,88.47
2022-12-26T20:32:46.710Z,92.25
2022-12-26T20:35:14.325Z,94.58
2022-12-26T20:37:41.690Z,95.60
2022-12-26T20:40:10.044Z,96.97
2022-12-26T20:42:37.396Z,97.13
2022-12-26T20:45:05.660Z,97.57
2022-12-26T20:47:33.046Z,98.25
2022-12-26T20:50:05.593Z,97.63
2022-12-26T20:52:33.168Z,97.65
2022-12-26T20:55:03.618Z,97.55
2022-12-26T20:57:30.995Z,96.99
2022-12-26T20:59:58.353Z,97.52
2022-12-26T21:02:25.858Z,98.85
2022-12-26T21:04:53.722Z,100.00
2022-12-26T21:07:22.402Z,100.00
2022-12-26T21:09:49.752Z,100.00
2022-12-26T21:12:17.113Z,100.00
2022-12-26T21:14:44.461Z,100.00
2022-12-26T21:17:11.924Z,100.00
2022-12-26T21:19:39.360Z,100.00
2022-12-26T21:22:08.589Z,100.00
2022-12-26T21:24:37.282Z,100.00
2022-12-26T21:27:05.116Z,100.00
2022-12-26T21:29:34.711Z,99.45
2022-12-26T21:32:03.433Z,98.80
2022-12-26T21:37:42.290Z,96.97
2022-12-26T21:40:12.050Z,95.46
2022-12-26T21:42:39.426Z,94.73
2022-12-26T21:45:07.726Z,95.04
2022-12-26T21:50:26.671Z,94.53
2022-12-26T21:52:54.029Z,94.79
2022-12-26T21:55:27.667Z,93.11
2022-12-26T21:57:55.394Z,93.53
2022-12-26T22:00:24.218Z,92.16
2022-12-26T22:03:09.643Z,93.03
2022-12-26T22:05:43.552Z,92.48
2022-12-26T22:08:12.164Z,91.95
2022-12-26T22:13:54.715Z,90.99
2022-12-26T22:16:22.123Z,90.24
2022-12-26T22:21:40.525Z,89.50
2022-12-26T22:24:08.286Z,89.01
2022-12-26T22:26:36.967Z,89.38
2022-12-26T22:31:58.307Z,88.98
2022-12-26T22:37:17.590Z,90.55
2022-12-26T22:39:44.979Z,92.43
2022-12-26T22:42:13.653Z,92.36
2022-12-26T22:44:41.014Z,91.85
2022-12-26T22:47:08.363Z,91.88
2022-12-26T22:49:39.594Z,91.64
2022-12-26T22:52:11.077Z,92.56
2022-12-26T22:54:45.542Z,93.77
2022-12-26T22:57:15.049Z,93.39
2022-12-26T23:00:07.750Z,95.34
2022-12-26T23:02:30.995Z,94.42
2022-12-26T23:05:02.544Z,94.43
2022-12-26T23:07:30.774Z,94.58
2022-12-26T23:12:55.665Z,94.55
2022-12-26T23:15:25.469Z,93.59
2022-12-26T23:18:16.117Z,93.53
2022-12-26T23:21:01.498Z,94.10
2022-12-26T23:26:20.739Z,93.52
2022-12-26T23:29:07.101Z,93.67
2022-12-26T23:31:34.501Z,93.22
2022-12-26T23:36:53.548Z,89.78
2022-12-26T23:39:21.144Z,90.21
2022-12-26T23:41:48.526Z,88.01
2022-12-26T23:47:09.491Z,89.64
2022-12-26T23:49:36.919Z,90.77
2022-12-26T23:52:06.552Z,90.05
2022-12-26T23:54:33.941Z,88.79
2022-12-26T23:57:01.329Z,87.43
2022-12-26T23:59:30.058Z,88.46
